Terminal Aerodrome Forecast
Issued by NWS Grand Forks, ND

Home | Current Version | Previous Version | Graphics & Text | Print | Product List | Glossary On
Versions: 1 2 3 4 5 6 7 8 9 10 11 12 13 14 15
000
FTUS43 KFGF 281140
TAFFAR
TAF
KFAR 281140Z 2812/2912 18007KT 2SM BR BKN003
     FM281300 18007KT 5SM BR SCT005
     FM281400 19007KT P6SM FEW060 SCT250
     FM281900 20012G20KT P6SM BKN250
     FM282300 20013G25KT P6SM VCTS SCT050CB BKN120
     FM290100 19008KT P6SM FEW250=

USA.gov is the U.S. government's official web portal to all federal, state and local government web resources and services.